Time;durP1;ratioP1;P1;durP2;ratioP2;P2;SDS_P1;SDS_P2;PMS_P1;PMS_P2;Temp;Humidity;BMP_temperature;BMP_pressure;BME280_temperature;BME280_humidity;BME280_pressure;Samples;Min_cycle;Max_cycle;Signal;HPM_P1;HPM_P2
2022/01/14 00:02:17;;;;;;;15.93;7.80;;;;;;;;;;5050442;28;20063;-78
2022/01/14 00:04:44;;;;;;;15.38;7.20;;;;;;;;;;5046114;28;20055;-80
2022/01/14 00:07:11;;;;;;;12.52;7.15;;;;;;;;;;5032906;28;20049;-75
2022/01/14 00:09:39;;;;;;;13.60;8.57;;;;;;;;;;5049735;28;20257;-80
2022/01/14 00:12:14;;;;;;;13.20;6.82;;;;;;;;;;5031738;28;20057;-72
2022/01/14 00:14:44;;;;;;;12.63;7.07;;;;;;;;;;5046495;28;20056;-73
2022/01/14 00:17:13;;;;;;;14.25;6.95;;;;;;;;;;5049078;28;20429;-77
2022/01/14 00:19:40;;;;;;;13.23;6.93;;;;;;;;;;5050178;28;21171;-71
2022/01/14 00:22:14;;;;;;;12.15;7.25;;;;;;;;;;5048074;28;20072;-74
2022/01/14 00:33:08;;;;;;;10.73;5.60;;;;;;;;;;5046568;28;20136;-72
2022/01/14 00:35:37;;;;;;;15.05;6.25;;;;;;;;;;5047019;28;20075;-74
2022/01/14 00:38:04;;;;;;;10.20;6.32;;;;;;;;;;5047767;28;20063;-71
2022/01/14 00:40:33;;;;;;;11.43;7.40;;;;;;;;;;5048385;28;20052;-73
2022/01/14 00:43:00;;;;;;;14.75;7.30;;;;;;;;;;5044912;28;20103;-75
2022/01/14 00:45:26;;;;;;;16.85;7.63;;;;;;;;;;5049380;28;20052;-72
2022/01/14 00:47:52;;;;;;;14.52;7.20;;;;;;;;;;5048216;28;20049;-78
2022/01/14 00:50:20;;;;;;;16.77;6.90;;;;;;;;;;5047982;28;20603;-77
2022/01/14 00:52:46;;;;;;;13.40;7.55;;;;;;;;;;5029539;28;20080;-78
2022/01/14 00:55:16;;;;;;;14.98;7.68;;;;;;;;;;5048837;28;20409;-73
2022/01/14 01:00:33;;;;;;;15.90;7.28;;;;;;;;;;5048824;28;20053;-74
2022/01/14 01:03:01;;;;;;;16.95;7.35;;;;;;;;;;5042443;28;20458;-76
2022/01/14 01:05:28;;;;;;;12.02;7.05;;;;;;;;;;5044890;28;20049;-71
2022/01/14 01:08:12;;;;;;;15.48;7.45;;;;;;;;;;5048106;28;20493;-77
2022/01/14 01:10:49;;;;;;;15.80;7.68;;;;;;;;;;5035207;28;20052;-75
2022/01/14 01:13:32;;;;;;;13.07;6.88;;;;;;;;;;5043998;28;20057;-79
2022/01/14 01:15:58;;;;;;;14.68;6.55;;;;;;;;;;5048906;28;20068;-76
2022/01/14 01:18:24;;;;;;;13.20;6.95;;;;;;;;;;5027795;28;20037;-79
2022/01/14 01:20:52;;;;;;;12.95;7.30;;;;;;;;;;5046400;28;20422;-76
2022/01/14 01:23:19;;;;;;;15.55;6.78;;;;;;;;;;5042442;28;20063;-80
2022/01/14 01:25:52;;;;;;;14.05;6.90;;;;;;;;;;5048441;28;20076;-75
2022/01/14 01:28:18;;;;;;;13.68;6.40;;;;;;;;;;5045411;28;20136;-77
2022/01/14 01:33:19;;;;;;;13.05;6.78;;;;;;;;;;5045155;28;20110;-81
2022/01/14 01:35:46;;;;;;;10.95;6.40;;;;;;;;;;5047828;28;20071;-77
2022/01/14 01:38:16;;;;;;;13.55;6.25;;;;;;;;;;5048686;28;20041;-79
2022/01/14 01:40:45;;;;;;;11.20;5.57;;;;;;;;;;5049444;28;20062;-75
2022/01/14 01:43:13;;;;;;;10.82;6.03;;;;;;;;;;5046924;28;20067;-80
2022/01/14 01:45:47;;;;;;;12.80;6.40;;;;;;;;;;5043062;28;20570;-77
2022/01/14 01:48:16;;;;;;;18.52;7.55;;;;;;;;;;5045668;28;20052;-77
2022/01/14 01:50:42;;;;;;;17.63;8.10;;;;;;;;;;5049846;28;20057;-74
2022/01/14 01:53:08;;;;;;;16.83;8.10;;;;;;;;;;5030698;28;20072;-74
2022/01/14 01:55:34;;;;;;;14.75;7.57;;;;;;;;;;5047069;28;20485;-74
2022/01/14 01:58:01;;;;;;;19.98;7.72;;;;;;;;;;5049033;28;20563;-72
2022/01/14 02:00:28;;;;;;;20.15;7.80;;;;;;;;;;5050261;28;20044;-70
2022/01/14 02:02:56;;;;;;;16.83;8.40;;;;;;;;;;5044057;28;20087;-74
2022/01/14 02:05:23;;;;;;;12.85;6.90;;;;;;;;;;5048859;28;20049;-79
2022/01/14 02:07:49;;;;;;;14.10;7.28;;;;;;;;;;5033289;28;20074;-80
2022/01/14 02:10:15;;;;;;;11.23;6.00;;;;;;;;;;5050578;28;20052;-72
2022/01/14 02:12:52;;;;;;;12.73;6.22;;;;;;;;;;5029259;28;20060;-79
2022/01/14 02:26:51;;;;;;;7.40;4.35;;;;;;;;;;4894564;29;20091;-79
2022/01/14 02:29:19;;;;;;;10.20;5.32;;;;;;;;;;4910137;29;20059;-77
2022/01/14 02:31:46;;;;;;;10.35;4.57;;;;;;;;;;4906182;29;20063;-72
2022/01/14 02:34:13;;;;;;;11.05;5.03;;;;;;;;;;4888862;29;20135;-75
2022/01/14 02:36:42;;;;;;;9.25;4.95;;;;;;;;;;4894729;29;20107;-71
2022/01/14 02:39:09;;;;;;;10.20;4.65;;;;;;;;;;4876737;29;20052;-75
2022/01/14 02:41:37;;;;;;;10.07;5.10;;;;;;;;;;4910617;29;20062;-75
2022/01/14 02:44:06;;;;;;;10.20;4.40;;;;;;;;;;4910903;29;21188;-77
2022/01/14 02:46:43;;;;;;;12.80;5.32;;;;;;;;;;4908296;29;20074;-72
2022/01/14 02:49:09;;;;;;;8.25;4.40;;;;;;;;;;4905072;29;20056;-78
2022/01/14 02:51:35;;;;;;;8.57;4.50;;;;;;;;;;4912080;29;20086;-70
2022/01/14 02:54:22;;;;;;;8.93;4.80;;;;;;;;;;4917018;28;20587;-72
2022/01/14 02:56:51;;;;;;;10.18;4.82;;;;;;;;;;5040641;28;20048;-75
2022/01/14 02:59:20;;;;;;;9.18;4.35;;;;;;;;;;5050956;28;20110;-72
2022/01/14 03:01:48;;;;;;;13.43;4.65;;;;;;;;;;5049103;28;20642;-78
2022/01/14 03:04:19;;;;;;;12.70;4.70;;;;;;;;;;5029951;28;20060;-72
2022/01/14 03:06:46;;;;;;;9.23;4.13;;;;;;;;;;5051359;28;20064;-78
2022/01/14 03:09:13;;;;;;;7.60;4.07;;;;;;;;;;5051060;28;20056;-73
2022/01/14 03:11:47;;;;;;;7.72;4.47;;;;;;;;;;5049152;28;20950;-76
2022/01/14 03:14:22;;;;;;;9.97;4.70;;;;;;;;;;5049330;28;20147;-75
2022/01/14 03:16:54;;;;;;;10.85;4.32;;;;;;;;;;5048275;28;20281;-80
2022/01/14 03:19:25;;;;;;;8.32;4.57;;;;;;;;;;5050355;28;20041;-71
2022/01/14 03:22:06;;;;;;;8.25;4.47;;;;;;;;;;5049525;28;20163;-79
2022/01/14 03:27:04;;;;;;;10.05;4.68;;;;;;;;;;5048239;28;20152;-75
2022/01/14 03:29:30;;;;;;;9.98;5.07;;;;;;;;;;5049051;28;20501;-75
2022/01/14 03:31:57;;;;;;;9.30;5.05;;;;;;;;;;5051838;28;20052;-79
2022/01/14 03:34:25;;;;;;;12.30;5.10;;;;;;;;;;5048441;28;20053;-79
2022/01/14 03:36:52;;;;;;;12.77;4.47;;;;;;;;;;5049305;28;20047;-77
2022/01/14 03:39:19;;;;;;;8.82;4.75;;;;;;;;;;5048982;28;20055;-79
2022/01/14 03:41:46;;;;;;;9.98;5.00;;;;;;;;;;5049186;28;20048;-76
2022/01/14 03:44:12;;;;;;;10.18;4.68;;;;;;;;;;5045115;28;20062;-80
2022/01/14 03:46:38;;;;;;;12.60;4.55;;;;;;;;;;5049828;28;20102;-70
2022/01/14 03:49:05;;;;;;;12.68;4.95;;;;;;;;;;5050224;28;20060;-71
2022/01/14 03:51:31;;;;;;;8.82;4.38;;;;;;;;;;5047053;28;20048;-70
2022/01/14 03:53:58;;;;;;;7.05;4.50;;;;;;;;;;5047917;28;20063;-78
2022/01/14 03:56:25;;;;;;;7.28;4.75;;;;;;;;;;5049025;28;20513;-79
2022/01/14 03:58:53;;;;;;;8.75;4.30;;;;;;;;;;5047641;28;20386;-77
2022/01/14 04:01:20;;;;;;;11.20;4.75;;;;;;;;;;5029418;28;20361;-79
2022/01/14 04:03:47;;;;;;;9.00;4.35;;;;;;;;;;5047413;28;20057;-78
2022/01/14 04:06:14;;;;;;;9.55;4.35;;;;;;;;;;5031799;28;20131;-79
2022/01/14 04:08:41;;;;;;;8.43;4.57;;;;;;;;;;5050189;28;20535;-71
2022/01/14 04:11:08;;;;;;;8.90;4.20;;;;;;;;;;5050548;28;20786;-72
2022/01/14 04:16:02;;;;;;;8.35;4.18;;;;;;;;;;5046731;28;20049;-76
2022/01/14 04:18:29;;;;;;;7.72;3.97;;;;;;;;;;5050147;28;20048;-80
2022/01/14 04:20:55;;;;;;;6.82;3.83;;;;;;;;;;5049610;28;20078;-71
2022/01/14 04:23:23;;;;;;;11.07;4.30;;;;;;;;;;5048006;28;20456;-76
2022/01/14 04:25:53;;;;;;;9.75;4.32;;;;;;;;;;5049158;28;20045;-77
2022/01/14 04:28:25;;;;;;;8.82;4.65;;;;;;;;;;5051719;28;20036;-74
2022/01/14 04:30:56;;;;;;;10.48;4.55;;;;;;;;;;5050852;28;20509;-75
2022/01/14 04:33:23;;;;;;;6.70;4.25;;;;;;;;;;5029752;28;20194;-77
2022/01/14 04:35:50;;;;;;;9.35;4.50;;;;;;;;;;5048151;28;20056;-78
2022/01/14 04:38:16;;;;;;;7.90;4.50;;;;;;;;;;5049657;28;20544;-78
2022/01/14 04:40:44;;;;;;;9.25;4.80;;;;;;;;;;5049552;28;20052;-76
2022/01/14 04:43:12;;;;;;;7.68;3.92;;;;;;;;;;5047297;28;20182;-79
2022/01/14 04:48:09;;;;;;;11.90;5.00;;;;;;;;;;5049213;28;20061;-75
2022/01/14 04:50:35;;;;;;;10.13;5.57;;;;;;;;;;5049397;28;20052;-71
2022/01/14 04:53:02;;;;;;;9.90;4.40;;;;;;;;;;5048186;28;20405;-74
2022/01/14 04:55:29;;;;;;;9.15;4.60;;;;;;;;;;5049448;28;20051;-72
2022/01/14 04:57:56;;;;;;;8.32;4.30;;;;;;;;;;5049390;28;20083;-78
2022/01/14 05:00:25;;;;;;;12.75;4.82;;;;;;;;;;5049765;28;20555;-74
2022/01/14 05:02:54;;;;;;;7.68;4.45;;;;;;;;;;5045177;28;20448;-76
2022/01/14 05:05:22;;;;;;;11.23;4.82;;;;;;;;;;5046545;28;20072;-78
2022/01/14 05:07:50;;;;;;;7.57;4.40;;;;;;;;;;5046855;28;20067;-78
2022/01/14 05:12:57;;;;;;;14.68;4.50;;;;;;;;;;5044956;28;20064;-79
2022/01/14 05:15:23;;;;;;;8.38;4.32;;;;;;;;;;5046176;28;20051;-76
2022/01/14 05:17:50;;;;;;;9.65;4.45;;;;;;;;;;5044708;28;20135;-78
2022/01/14 05:20:17;;;;;;;8.98;4.53;;;;;;;;;;5045746;28;20057;-78
2022/01/14 05:22:44;;;;;;;8.25;4.25;;;;;;;;;;5028484;28;20500;-73
2022/01/14 05:25:11;;;;;;;9.68;4.80;;;;;;;;;;5033757;28;20137;-76
2022/01/14 05:27:38;;;;;;;9.43;4.53;;;;;;;;;;5053756;28;20198;-74
2022/01/14 05:30:07;;;;;;;12.20;4.60;;;;;;;;;;5049870;28;20052;-70
2022/01/14 05:32:33;;;;;;;9.88;4.85;;;;;;;;;;5023597;28;20055;-74
2022/01/14 05:34:59;;;;;;;9.40;4.45;;;;;;;;;;5039725;28;20568;-81
2022/01/14 05:37:26;;;;;;;12.23;4.93;;;;;;;;;;5044257;28;20482;-74
2022/01/14 05:39:52;;;;;;;9.95;4.78;;;;;;;;;;5042088;28;20079;-76
2022/01/14 05:42:18;;;;;;;12.27;5.75;;;;;;;;;;5025662;28;20044;-76
2022/01/14 05:44:45;;;;;;;11.68;4.88;;;;;;;;;;5042038;28;20775;-79
2022/01/14 05:47:10;;;;;;;10.82;5.05;;;;;;;;;;5043886;28;20053;-73
2022/01/14 05:49:37;;;;;;;13.00;4.55;;;;;;;;;;5046717;28;20791;-71
2022/01/14 05:52:03;;;;;;;10.32;4.65;;;;;;;;;;5046148;28;20065;-75
2022/01/14 05:54:30;;;;;;;8.23;3.90;;;;;;;;;;5027098;28;20165;-70
2022/01/14 05:56:56;;;;;;;11.02;4.13;;;;;;;;;;5043646;28;20064;-72
2022/01/14 05:59:22;;;;;;;12.50;4.63;;;;;;;;;;5045875;28;20129;-77
2022/01/14 06:01:49;;;;;;;8.50;4.78;;;;;;;;;;5043683;28;20072;-78
2022/01/14 06:04:15;;;;;;;10.65;4.90;;;;;;;;;;5042240;28;20392;-77
2022/01/14 06:06:42;;;;;;;9.20;4.65;;;;;;;;;;5043815;28;20091;-79
2022/01/14 06:09:08;;;;;;;15.18;5.22;;;;;;;;;;5047162;28;20139;-74
2022/01/14 06:11:34;;;;;;;7.78;4.72;;;;;;;;;;5040491;28;20077;-73
2022/01/14 06:14:01;;;;;;;8.30;4.65;;;;;;;;;;5040557;28;21412;-75
2022/01/14 06:16:27;;;;;;;15.80;6.60;;;;;;;;;;5043437;28;20141;-72
2022/01/14 06:18:53;;;;;;;7.90;4.15;;;;;;;;;;5025605;28;20060;-77
2022/01/14 06:21:20;;;;;;;9.57;4.85;;;;;;;;;;5043982;28;20041;-78
2022/01/14 06:23:46;;;;;;;10.02;5.05;;;;;;;;;;5038000;28;20048;-77
2022/01/14 06:26:12;;;;;;;9.45;4.85;;;;;;;;;;5039841;28;20048;-78
2022/01/14 06:28:42;;;;;;;10.50;5.63;;;;;;;;;;5044827;28;20080;-75
2022/01/14 06:31:08;;;;;;;11.55;5.95;;;;;;;;;;5045568;28;20079;-70
2022/01/14 06:33:34;;;;;;;11.55;5.55;;;;;;;;;;5043977;28;21202;-75
2022/01/14 06:36:00;;;;;;;11.35;5.60;;;;;;;;;;5042357;28;20409;-72
2022/01/14 06:38:26;;;;;;;10.25;5.25;;;;;;;;;;5042880;28;20390;-71
2022/01/14 06:40:53;;;;;;;12.32;6.20;;;;;;;;;;5029849;28;20054;-81
2022/01/14 06:43:19;;;;;;;10.95;5.15;;;;;;;;;;5040324;28;20429;-79
2022/01/14 06:45:46;;;;;;;12.38;5.50;;;;;;;;;;5044661;28;20093;-77
2022/01/14 06:48:12;;;;;;;13.43;5.53;;;;;;;;;;5046587;28;20471;-78
2022/01/14 06:50:38;;;;;;;10.35;5.68;;;;;;;;;;5044304;28;20056;-82
2022/01/14 06:53:04;;;;;;;10.70;5.30;;;;;;;;;;5042191;28;20141;-72
2022/01/14 06:55:30;;;;;;;9.25;4.78;;;;;;;;;;5029083;28;20517;-71
2022/01/14 06:57:56;;;;;;;10.68;6.18;;;;;;;;;;5043870;28;20106;-79
2022/01/14 07:00:22;;;;;;;13.40;5.55;;;;;;;;;;5046146;28;20502;-80
2022/01/14 07:02:49;;;;;;;11.95;6.10;;;;;;;;;;5040123;28;20146;-78
2022/01/14 07:05:15;;;;;;;12.07;5.10;;;;;;;;;;5043190;28;20097;-80
2022/01/14 07:07:42;;;;;;;9.15;5.07;;;;;;;;;;5045538;28;20415;-80
2022/01/14 07:10:09;;;;;;;13.50;4.80;;;;;;;;;;5047376;28;20086;-75
2022/01/14 07:12:37;;;;;;;10.07;4.95;;;;;;;;;;5042616;28;20052;-72
2022/01/14 07:15:10;;;;;;;14.13;5.55;;;;;;;;;;5045290;28;20071;-72
2022/01/14 07:17:37;;;;;;;11.77;5.30;;;;;;;;;;5039690;28;20314;-73
2022/01/14 07:20:08;;;;;;;15.55;5.20;;;;;;;;;;5042438;28;20481;-69
2022/01/14 07:22:34;;;;;;;20.25;6.60;;;;;;;;;;5007364;28;20052;-73
2022/01/14 07:25:02;;;;;;;12.02;5.90;;;;;;;;;;5044199;28;20119;-74
2022/01/14 07:27:28;;;;;;;11.05;5.18;;;;;;;;;;5043520;28;20163;-72
2022/01/14 07:29:55;;;;;;;16.63;5.35;;;;;;;;;;5048322;28;20114;-81
2022/01/14 07:32:22;;;;;;;13.82;5.20;;;;;;;;;;5046316;28;20051;-76
2022/01/14 07:34:48;;;;;;;13.57;4.85;;;;;;;;;;5051728;28;20083;-71
2022/01/14 07:37:16;;;;;;;12.55;5.18;;;;;;;;;;5056603;28;20048;-81
2022/01/14 07:39:42;;;;;;;10.57;5.43;;;;;;;;;;5053735;28;20044;-80
2022/01/14 07:42:09;;;;;;;9.45;4.78;;;;;;;;;;5045515;28;20140;-75
2022/01/14 07:44:35;;;;;;;11.75;5.05;;;;;;;;;;5044298;28;20045;-71
2022/01/14 07:47:03;;;;;;;21.45;6.10;;;;;;;;;;5049221;28;20095;-69
2022/01/14 07:49:29;;;;;;;11.93;5.30;;;;;;;;;;5049664;28;20049;-77
2022/01/14 07:51:56;;;;;;;10.65;5.88;;;;;;;;;;5052623;28;20101;-78
2022/01/14 07:54:22;;;;;;;12.98;5.50;;;;;;;;;;5035380;28;20086;-80
2022/01/14 07:56:52;;;;;;;8.02;5.00;;;;;;;;;;5036677;28;20048;-81
2022/01/14 07:59:22;;;;;;;9.98;4.72;;;;;;;;;;5051239;28;20040;-86
2022/01/14 08:01:50;;;;;;;13.32;5.03;;;;;;;;;;5033891;28;20059;-79
2022/01/14 08:04:18;;;;;;;13.63;5.35;;;;;;;;;;5046632;28;20378;-83
2022/01/14 08:06:50;;;;;;;13.30;5.03;;;;;;;;;;5030314;28;20541;-78
2022/01/14 08:09:17;;;;;;;13.10;5.05;;;;;;;;;;5031649;28;20052;-83
2022/01/14 08:11:45;;;;;;;10.35;5.03;;;;;;;;;;5030863;28;20894;-75
2022/01/14 08:14:12;;;;;;;12.13;5.13;;;;;;;;;;5050043;28;20062;-70
2022/01/14 08:16:39;;;;;;;12.85;4.88;;;;;;;;;;5049695;28;20623;-82
2022/01/14 08:19:07;;;;;;;12.30;5.43;;;;;;;;;;5051106;28;20265;-76
2022/01/14 08:21:33;;;;;;;10.40;4.97;;;;;;;;;;5047528;28;20241;-82
2022/01/14 08:24:00;;;;;;;14.00;5.10;;;;;;;;;;5046672;28;20052;-73
2022/01/14 08:26:26;;;;;;;11.95;4.78;;;;;;;;;;5045166;28;20041;-76
2022/01/14 08:28:52;;;;;;;16.52;5.78;;;;;;;;;;5034148;28;20052;-78
2022/01/14 08:31:19;;;;;;;14.35;5.03;;;;;;;;;;5056640;28;20550;-84
2022/01/14 08:33:46;;;;;;;11.32;5.38;;;;;;;;;;5054862;28;20089;-79
2022/01/14 08:36:13;;;;;;;10.02;5.07;;;;;;;;;;5038083;28;20198;-75
2022/01/14 08:38:39;;;;;;;13.23;5.68;;;;;;;;;;5058986;28;20037;-78
2022/01/14 08:41:06;;;;;;;13.77;5.50;;;;;;;;;;5037678;28;20121;-73
2022/01/14 08:43:32;;;;;;;18.70;4.93;;;;;;;;;;5038163;28;20063;-73
2022/01/14 08:46:01;;;;;;;16.45;5.05;;;;;;;;;;5053619;28;20048;-73
2022/01/14 08:48:30;;;;;;;13.98;6.68;;;;;;;;;;5052875;28;20053;-80
2022/01/14 08:50:57;;;;;;;15.48;6.60;;;;;;;;;;5054326;28;20122;-76
2022/01/14 08:53:24;;;;;;;16.77;6.32;;;;;;;;;;5054952;28;20139;-85
2022/01/14 08:55:50;;;;;;;11.93;6.05;;;;;;;;;;5040713;28;20078;-79
2022/01/14 08:58:16;;;;;;;18.40;6.07;;;;;;;;;;5058343;28;20162;-74
2022/01/14 09:00:42;;;;;;;11.63;5.90;;;;;;;;;;5062724;28;20049;-82
2022/01/14 09:03:08;;;;;;;13.65;6.30;;;;;;;;;;5060908;28;20055;-73
2022/01/14 09:05:35;;;;;;;14.80;6.43;;;;;;;;;;5058740;28;20239;-72
2022/01/14 09:08:02;;;;;;;10.38;5.55;;;;;;;;;;5058808;28;20102;-77
2022/01/14 09:10:28;;;;;;;10.10;5.47;;;;;;;;;;5057014;28;20049;-86
2022/01/14 09:12:54;;;;;;;13.45;4.97;;;;;;;;;;5053876;28;20053;-81
2022/01/14 09:15:20;;;;;;;12.23;4.35;;;;;;;;;;5061734;28;20063;-78
2022/01/14 09:17:47;;;;;;;14.88;4.90;;;;;;;;;;5062762;28;20048;-78
2022/01/14 09:20:14;;;;;;;9.00;4.55;;;;;;;;;;5060553;28;20067;-72
2022/01/14 09:22:47;;;;;;;11.40;4.47;;;;;;;;;;5058354;28;20056;-71
2022/01/14 09:25:15;;;;;;;12.73;4.43;;;;;;;;;;5060822;28;20799;-72
2022/01/14 09:27:41;;;;;;;15.23;5.95;;;;;;;;;;5060674;28;20136;-81
2022/01/14 09:30:10;;;;;;;10.60;4.18;;;;;;;;;;5055541;28;20052;-73
2022/01/14 09:32:35;;;;;;;13.43;4.93;;;;;;;;;;5041355;28;20068;-78
2022/01/14 09:35:03;;;;;;;8.38;4.13;;;;;;;;;;5058744;28;20048;-80
2022/01/14 09:37:30;;;;;;;10.85;4.90;;;;;;;;;;5055592;28;20128;-77
2022/01/14 09:39:56;;;;;;;7.75;4.25;;;;;;;;;;5057461;28;20413;-76
2022/01/14 09:42:22;;;;;;;15.95;4.75;;;;;;;;;;5056119;28;20770;-83
2022/01/14 09:44:49;;;;;;;35.38;5.68;;;;;;;;;;5052880;28;20539;-80
2022/01/14 09:47:19;;;;;;;11.02;4.15;;;;;;;;;;5035932;28;20049;-73
2022/01/14 09:49:46;;;;;;;10.85;4.28;;;;;;;;;;5053815;28;20190;-82
2022/01/14 09:52:14;;;;;;;10.20;4.35;;;;;;;;;;5051979;28;20482;-78
2022/01/14 09:54:47;;;;;;;11.43;4.30;;;;;;;;;;5050706;28;20399;-77
2022/01/14 09:57:15;;;;;;;12.48;4.75;;;;;;;;;;5053052;28;20564;-83
2022/01/14 09:59:41;;;;;;;8.23;4.70;;;;;;;;;;5051762;28;20052;-71
2022/01/14 10:02:07;;;;;;;11.00;4.32;;;;;;;;;;5050273;28;20123;-82
2022/01/14 10:04:35;;;;;;;15.70;5.35;;;;;;;;;;5032314;28;20792;-71
2022/01/14 10:07:03;;;;;;;14.00;5.38;;;;;;;;;;5051177;28;20058;-80
2022/01/14 10:09:32;;;;;;;12.40;4.60;;;;;;;;;;5048739;28;20128;-79
2022/01/14 10:12:15;;;;;;;11.40;3.72;;;;;;;;;;5031168;28;20052;-73
2022/01/14 10:14:52;;;;;;;9.40;4.45;;;;;;;;;;5051231;28;20134;-82
2022/01/14 10:17:20;;;;;;;11.52;3.53;;;;;;;;;;5055684;28;20144;-82
2022/01/14 10:19:47;;;;;;;7.90;3.72;;;;;;;;;;5051586;28;20131;-78
2022/01/14 10:22:34;;;;;;;8.68;3.80;;;;;;;;;;5050374;28;20071;-75
2022/01/14 10:25:04;;;;;;;10.43;4.03;;;;;;;;;;5052197;28;20056;-77
2022/01/14 10:27:36;;;;;;;9.77;4.70;;;;;;;;;;5053673;28;20032;-74
2022/01/14 10:30:14;;;;;;;7.45;3.83;;;;;;;;;;5053103;28;20523;-76
2022/01/14 10:32:42;;;;;;;8.70;3.97;;;;;;;;;;5049921;28;20141;-79
2022/01/14 10:35:18;;;;;;;10.90;4.32;;;;;;;;;;5055983;28;20501;-72
2022/01/14 10:37:44;;;;;;;9.23;4.22;;;;;;;;;;5035463;28;20136;-77
2022/01/14 10:40:13;;;;;;;8.65;4.65;;;;;;;;;;5050256;28;20095;-80
2022/01/14 10:42:41;;;;;;;11.60;4.00;;;;;;;;;;5049101;28;20085;-83
2022/01/14 10:45:15;;;;;;;9.85;4.50;;;;;;;;;;5054591;28;20067;-83
2022/01/14 10:47:59;;;;;;;12.23;6.68;;;;;;;;;;5056281;28;20056;-84
2022/01/14 10:50:39;;;;;;;10.35;4.50;;;;;;;;;;5056337;28;20113;-84
2022/01/14 10:53:09;;;;;;;5.97;3.83;;;;;;;;;;5055428;28;20110;-73
2022/01/14 10:55:40;;;;;;;13.75;5.15;;;;;;;;;;5037462;28;20406;-76
2022/01/14 10:58:26;;;;;;;9.80;4.30;;;;;;;;;;5056296;28;20099;-83
2022/01/14 11:01:07;;;;;;;12.05;4.00;;;;;;;;;;5057956;28;20056;-77
2022/01/14 11:03:37;;;;;;;9.90;4.03;;;;;;;;;;5056475;28;20159;-71
2022/01/14 11:06:32;;;;;;;8.75;3.80;;;;;;;;;;5058541;28;20561;-76
2022/01/14 11:09:03;;;;;;;8.35;3.88;;;;;;;;;;5055738;28;20101;-74
2022/01/14 11:11:34;;;;;;;12.35;4.22;;;;;;;;;;5051754;28;20055;-81
2022/01/14 11:14:01;;;;;;;5.88;3.58;;;;;;;;;;5056237;28;20077;-84
2022/01/14 11:16:27;;;;;;;8.73;3.97;;;;;;;;;;5055430;28;20445;-79
2022/01/14 11:18:58;;;;;;;6.57;4.05;;;;;;;;;;5060388;28;20628;-80
2022/01/14 11:24:14;;;;;;;10.65;4.28;;;;;;;;;;5058628;28;20056;-74
2022/01/14 11:26:43;;;;;;;9.25;4.05;;;;;;;;;;5061510;28;20561;-72
2022/01/14 11:29:16;;;;;;;8.45;4.40;;;;;;;;;;5055422;28;20175;-75
2022/01/14 11:31:43;;;;;;;10.15;3.97;;;;;;;;;;5058070;28;20135;-81
2022/01/14 11:34:33;;;;;;;12.05;4.40;;;;;;;;;;5055101;28;20057;-81
2022/01/14 11:37:02;;;;;;;7.60;3.80;;;;;;;;;;5049006;28;20048;-81
2022/01/14 11:39:31;;;;;;;8.82;4.20;;;;;;;;;;5057279;28;20049;-82
2022/01/14 11:42:04;;;;;;;6.97;3.78;;;;;;;;;;5036736;28;20087;-77
2022/01/14 11:45:00;;;;;;;10.25;4.40;;;;;;;;;;5057049;28;20053;-78
2022/01/14 11:47:28;;;;;;;9.98;4.63;;;;;;;;;;5037604;28;20049;-77
2022/01/14 11:49:57;;;;;;;7.85;4.05;;;;;;;;;;5063851;28;20083;-75
2022/01/14 11:52:40;;;;;;;11.10;3.97;;;;;;;;;;5068648;28;20048;-73
2022/01/14 11:55:21;;;;;;;11.25;3.72;;;;;;;;;;5066621;28;20523;-74
2022/01/14 11:57:52;;;;;;;7.93;3.20;;;;;;;;;;5063657;28;20098;-81
2022/01/14 12:00:27;;;;;;;6.97;3.03;;;;;;;;;;5065245;28;20147;-75
2022/01/14 12:02:59;;;;;;;4.82;2.78;;;;;;;;;;5064133;28;20056;-74
2022/01/14 12:05:30;;;;;;;5.97;2.95;;;;;;;;;;5066340;28;20052;-73
2022/01/14 12:08:07;;;;;;;5.38;2.83;;;;;;;;;;5066770;28;20060;-72
2022/01/14 12:10:47;;;;;;;7.97;3.00;;;;;;;;;;5066583;28;20052;-75
2022/01/14 12:13:25;;;;;;;6.40;2.63;;;;;;;;;;5064335;28;20159;-74
2022/01/14 12:16:03;;;;;;;6.40;3.00;;;;;;;;;;5066956;28;20049;-73
2022/01/14 12:18:57;;;;;;;8.32;3.20;;;;;;;;;;5070495;28;20426;-73
2022/01/14 12:21:51;;;;;;;6.47;2.83;;;;;;;;;;5068028;28;20083;-82
2022/01/14 12:24:18;;;;;;;8.65;3.08;;;;;;;;;;5071083;28;20546;-74
2022/01/14 12:27:11;;;;;;;6.03;3.13;;;;;;;;;;5070172;28;20092;-79
2022/01/14 12:29:49;;;;;;;5.43;2.50;;;;;;;;;;5070263;28;20477;-74
2022/01/14 12:32:37;;;;;;;4.95;2.38;;;;;;;;;;5068240;28;20053;-74
2022/01/14 12:35:07;;;;;;;6.28;2.75;;;;;;;;;;5064644;28;20053;-73
2022/01/14 12:37:36;;;;;;;9.80;3.65;;;;;;;;;;5067799;28;20056;-73
2022/01/14 12:40:06;;;;;;;7.03;3.05;;;;;;;;;;5068951;28;20064;-72
2022/01/14 12:42:33;;;;;;;6.53;3.38;;;;;;;;;;5067978;28;20053;-76
2022/01/14 12:45:00;;;;;;;9.70;3.22;;;;;;;;;;5063656;28;20110;-77
2022/01/14 12:47:33;;;;;;;8.57;3.10;;;;;;;;;;5066699;28;20091;-84
2022/01/14 12:50:08;;;;;;;9.45;3.10;;;;;;;;;;5051478;28;20084;-72
2022/01/14 12:52:49;;;;;;;6.32;3.17;;;;;;;;;;5069914;28;20044;-75
2022/01/14 12:55:16;;;;;;;6.78;2.88;;;;;;;;;;5068080;28;20052;-77
2022/01/14 12:57:43;;;;;;;6.65;3.00;;;;;;;;;;5066769;28;20744;-73
2022/01/14 13:00:12;;;;;;;5.75;3.10;;;;;;;;;;5064957;28;20075;-74
2022/01/14 13:02:39;;;;;;;7.05;3.00;;;;;;;;;;5058105;28;20084;-75
2022/01/14 13:05:21;;;;;;;8.20;2.92;;;;;;;;;;5045284;28;20405;-77
2022/01/14 13:07:48;;;;;;;12.68;4.07;;;;;;;;;;5062314;28;20068;-84
2022/01/14 13:10:17;;;;;;;9.23;3.67;;;;;;;;;;5061846;28;20087;-74
2022/01/14 13:12:45;;;;;;;8.73;3.70;;;;;;;;;;5058530;28;20486;-78
2022/01/14 13:15:16;;;;;;;18.08;4.18;;;;;;;;;;5060751;28;20122;-74
2022/01/14 13:17:53;;;;;;;11.73;4.40;;;;;;;;;;5061644;28;20139;-79
2022/01/14 13:20:21;;;;;;;10.45;4.18;;;;;;;;;;5046469;28;20059;-84
2022/01/14 13:22:49;;;;;;;12.38;3.85;;;;;;;;;;5065444;28;20444;-74
2022/01/14 13:25:28;;;;;;;11.20;4.63;;;;;;;;;;5068140;28;20086;-72
2022/01/14 13:27:58;;;;;;;10.88;4.22;;;;;;;;;;5051796;28;20379;-73
2022/01/14 13:30:37;;;;;;;11.15;4.28;;;;;;;;;;5069642;28;20474;-82
2022/01/14 13:33:18;;;;;;;12.32;3.95;;;;;;;;;;5061398;28;20118;-71
2022/01/14 13:35:47;;;;;;;13.68;4.35;;;;;;;;;;5040278;28;20048;-79
2022/01/14 13:38:20;;;;;;;9.98;4.10;;;;;;;;;;5056792;28;20463;-79
2022/01/14 13:40:52;;;;;;;11.90;4.68;;;;;;;;;;5049623;28;20053;-80
2022/01/14 13:43:22;;;;;;;8.15;3.88;;;;;;;;;;5049642;28;20080;-81
2022/01/14 13:46:06;;;;;;;7.70;3.67;;;;;;;;;;5053190;28;20053;-77
2022/01/14 13:48:38;;;;;;;;;;;;;;;;;;5058341;28;20052;-83
2022/01/14 13:51:07;;;;;;;11.48;3.85;;;;;;;;;;5053021;28;20151;-78
2022/01/14 13:53:42;;;;;;;10.75;3.33;;;;;;;;;;5052975;28;20056;-78
2022/01/14 13:56:17;;;;;;;10.15;3.35;;;;;;;;;;5052196;28;20060;-78
2022/01/14 13:58:57;;;;;;;15.05;3.58;;;;;;;;;;5054553;28;21274;-78
2022/01/14 14:01:25;;;;;;;7.28;2.80;;;;;;;;;;5051532;28;20060;-72
2022/01/14 14:04:01;;;;;;;8.10;2.50;;;;;;;;;;5050946;28;20202;-87
2022/01/14 14:06:34;;;;;;;6.15;2.60;;;;;;;;;;5051297;28;20067;-80
2022/01/14 14:09:09;;;;;;;5.35;2.78;;;;;;;;;;5057693;28;20094;-77
2022/01/14 14:17:05;;;;;;;6.03;2.90;;;;;;;;;;5055931;28;20520;-80
2022/01/14 14:19:47;;;;;;;10.43;3.38;;;;;;;;;;5060292;28;21236;-75
2022/01/14 14:22:24;;;;;;;8.15;2.97;;;;;;;;;;5064488;28;20052;-74
2022/01/14 14:25:09;;;;;;;6.82;2.88;;;;;;;;;;5048313;28;20114;-74
2022/01/14 14:27:37;;;;;;;6.72;2.97;;;;;;;;;;5050240;28;20524;-84
2022/01/14 14:30:13;;;;;;;10.25;2.95;;;;;;;;;;5033779;28;20518;-79
2022/01/14 14:32:41;;;;;;;7.63;2.72;;;;;;;;;;5050862;28;21055;-80
2022/01/14 14:35:15;;;;;;;8.63;2.90;;;;;;;;;;5050018;28;20064;-76
2022/01/14 14:37:46;;;;;;;8.65;3.38;;;;;;;;;;5043919;28;20143;-76
2022/01/14 14:40:17;;;;;;;6.10;2.78;;;;;;;;;;5045003;28;20463;-81
2022/01/14 14:42:44;;;;;;;9.80;3.35;;;;;;;;;;5052926;28;20056;-79
2022/01/14 14:45:12;;;;;;;7.30;3.25;;;;;;;;;;5050923;28;20049;-75
2022/01/14 14:47:39;;;;;;;8.23;3.08;;;;;;;;;;5048616;28;20110;-81
2022/01/14 14:50:08;;;;;;;10.07;3.40;;;;;;;;;;5049989;28;20056;-79
2022/01/14 14:52:36;;;;;;;11.48;3.72;;;;;;;;;;5037899;28;20052;-80
2022/01/14 14:55:04;;;;;;;12.30;4.20;;;;;;;;;;5043974;28;20076;-79
2022/01/14 14:57:30;;;;;;;8.00;3.85;;;;;;;;;;5041299;28;20053;-79
2022/01/14 14:59:56;;;;;;;11.70;3.55;;;;;;;;;;5043407;28;20079;-80
2022/01/14 15:02:24;;;;;;;7.63;3.70;;;;;;;;;;5038047;28;20241;-77
2022/01/14 15:04:50;;;;;;;8.15;3.83;;;;;;;;;;5043846;28;20064;-74
2022/01/14 15:07:17;;;;;;;11.77;4.00;;;;;;;;;;5043603;28;20051;-78
2022/01/14 15:09:44;;;;;;;8.55;4.20;;;;;;;;;;5043520;28;20086;-81
2022/01/14 15:12:13;;;;;;;10.00;4.10;;;;;;;;;;5038067;28;20487;-74
2022/01/14 15:14:46;;;;;;;13.57;4.00;;;;;;;;;;5038920;28;20056;-76
2022/01/14 15:19:51;;;;;;;6.82;3.67;;;;;;;;;;5042934;28;20048;-76
2022/01/14 15:22:18;;;;;;;10.70;4.43;;;;;;;;;;5040842;28;20545;-77
2022/01/14 15:24:44;;;;;;;11.85;4.35;;;;;;;;;;5042436;28;20221;-79
2022/01/14 15:27:11;;;;;;;19.27;4.47;;;;;;;;;;5046846;28;20434;-77
2022/01/14 15:29:37;;;;;;;12.80;4.78;;;;;;;;;;5031778;28;20102;-79
2022/01/14 15:32:05;;;;;;;8.68;3.83;;;;;;;;;;5036668;28;20070;-75
2022/01/14 15:34:31;;;;;;;12.60;4.53;;;;;;;;;;5041890;28;20243;-72
2022/01/14 15:36:58;;;;;;;13.35;3.97;;;;;;;;;;5042722;28;20574;-73